Time;durP1;ratioP1;P1;durP2;ratioP2;P2;SDS_P1;SDS_P2;PMS_P1;PMS_P2;Temp;Humidity;BMP_temperature;BMP_pressure;BME280_temperature;BME280_humidity;BME280_pressure;Samples;Min_cycle;Max_cycle;Signal;HPM_P1;HPM_P2
2022/02/27 00:08:55;;;;;;;;;;;;;;;4.11;100.00;100632.94;5040324;28;20359;-62
2022/02/27 00:17:42;;;;;;;;;;;;;;;4.26;100.00;100629.81;5041513;28;19924;-61
2022/02/27 00:29:21;;;;;;;;;;;;;;;3.59;100.00;100636.06;5041265;28;19979;-61
2022/02/27 00:34:52;;;;;;;;;;;;;;;3.88;100.00;100639.25;5041137;28;20409;-60
2022/02/27 00:37:49;;;;;;;;;;;;;;;3.65;100.00;100638.72;5041379;28;19929;-62
2022/02/27 00:43:17;;;;;;;;;;;;;;;3.47;100.00;100629.00;5038949;28;19928;-62
2022/02/27 00:58:03;;;;;;;;;;;;;;;3.47;100.00;100624.75;5044214;28;19968;-60
2022/02/27 01:37:41;;;;;;;;;;;;;;;3.42;100.00;100620.38;5041182;28;19970;-62
2022/02/27 02:17:42;;;;;;;;;;;;;;;3.35;100.00;100602.44;5040708;28;19925;-60
2022/02/27 02:47:46;;;;;;;;;;;;;;;3.71;100.00;100573.47;5060879;28;20012;-61
2022/02/27 03:47:47;;;;;;;;;;;;;;;5.41;100.00;100547.53;5082786;28;20384;-61
2022/02/27 04:18:02;;;;;;;;;;;;;;;4.53;100.00;100552.97;5081680;28;19927;-61
2022/02/27 04:48:12;;;;;;;;;;;;;;;3.91;100.00;100555.19;5081264;28;20042;-61
2022/02/27 05:00:04;;;;;;;;;;;;;;;3.51;100.00;100551.81;5082447;28;19920;-60
2022/02/27 06:08:24;;;;;;;;;;;;;;;3.92;100.00;100562.00;5082590;28;20095;-60
2022/02/27 06:47:50;;;;;;;;;;;;;;;4.76;100.00;100572.91;5067018;28;20337;-61
2022/02/27 06:53:19;;;;;;;;;;;;;;;4.18;100.00;100581.22;5070312;28;19942;-61
2022/02/27 06:56:03;;;;;;;;;;;;;;;3.46;100.00;100591.59;5053508;28;20014;-61
2022/02/27 07:07:45;;;;;;;;;;;;;;;4.32;100.00;100593.38;5068415;28;19920;-62
2022/02/27 07:38:13;;;;;;;;;;;;;;;5.65;100.00;100612.59;5075778;28;20007;-62
2022/02/27 08:02:54;;;;;;;;;;;;;;;6.78;100.00;100613.09;5079090;28;19928;-59
2022/02/27 08:05:20;;;;;;;;;;;;;;;6.45;100.00;100616.16;5081059;28;19965;-60
2022/02/27 08:07:55;;;;;;;;;;;;;;;6.48;100.00;100619.63;5080444;28;19917;-60
2022/02/27 08:19:35;;;;;;;;;;;;;;;7.00;100.00;100615.81;5081099;28;19923;-59
2022/02/27 09:07:47;;;;;;;;;;;;;;;7.33;100.00;100594.75;5105105;28;20406;-59
2022/02/27 09:10:38;;;;;;;;;;;;;;;7.40;100.00;100593.94;5105203;28;20004;-59
2022/02/27 09:13:03;;;;;;;;;;;;;;;7.72;100.00;100594.13;5109592;28;19912;-58
2022/02/27 09:18:42;;;;;;;;;;;;;;;7.31;100.00;100602.41;5102993;28;19974;-59
2022/02/27 09:21:32;;;;;;;;;;;;;;;8.16;100.00;100592.59;5103901;28;19920;-59
2022/02/27 09:23:57;;;;;;;;;;;;;;;7.84;100.00;100585.63;5105903;28;19916;-59
2022/02/27 09:26:24;;;;;;;;;;;;;;;7.69;100.00;100580.44;5103769;28;19938;-60
2022/02/27 09:28:50;;;;;;;;;;;;;;;7.73;100.00;100582.16;5088905;28;20404;-60
2022/02/27 09:31:15;;;;;;;;;;;;;;;8.02;100.00;100576.31;5101080;28;20001;-59
2022/02/27 09:33:40;;;;;;;;;;;;;;;7.95;100.00;100578.84;5104197;28;19916;-59
2022/02/27 09:36:10;;;;;;;;;;;;;;;8.13;100.00;100583.19;5087308;28;20166;-60
2022/02/27 09:38:36;;;;;;;;;;;;;;;8.22;100.00;100577.22;5102645;28;19923;-58
2022/02/27 09:41:01;;;;;;;;;;;;;;;8.27;100.00;100577.25;5102579;28;19938;-59
2022/02/27 09:43:26;;;;;;;;;;;;;;;8.51;100.00;100581.63;5082048;28;19927;-59
2022/02/27 09:45:52;;;;;;;;;;;;;;;8.16;100.00;100578.09;5093851;28;19969;-59
2022/02/27 09:48:17;;;;;;;;;;;;;;;8.44;100.00;100572.16;5100545;28;20426;-59
2022/02/27 09:50:42;;;;;;;;;;;;;;;9.06;100.00;100575.66;5079089;28;20777;-59
2022/02/27 09:53:09;;;;;;;;;;;;;;;8.91;100.00;100568.78;5097748;28;20038;-56
2022/02/27 10:08:16;;;;;;;;;;;;;;;8.88;94.21;100563.66;5101138;28;20003;-60
2022/02/27 10:19:50;;;;;;;;;;;;;;;9.79;92.15;100567.78;5104128;28;19946;-59
2022/02/27 10:22:15;;;;;;;;;;;;;;;10.20;90.24;100553.88;5105083;28;19915;-60
2022/02/27 10:24:41;;;;;;;;;;;;;;;9.96;91.20;100559.13;5087917;28;20304;-59
2022/02/27 10:27:10;;;;;;;;;;;;;;;9.90;87.63;100556.56;5087091;28;19915;-59
2022/02/27 10:29:36;;;;;;;;;;;;;;;9.92;88.12;100560.88;5099718;28;19924;-59
2022/02/27 10:32:01;;;;;;;;;;;;;;;9.23;87.95;100549.94;5075423;28;19919;-58
2022/02/27 10:34:28;;;;;;;;;;;;;;;9.11;90.48;100561.09;5092603;28;20060;-57
2022/02/27 10:36:57;;;;;;;;;;;;;;;10.01;91.43;100558.28;5092581;28;19912;-60
2022/02/27 10:39:46;;;;;;;;;;;;;;;9.56;89.52;100555.00;5093832;28;19955;-60
2022/02/27 10:42:21;;;;;;;;;;;;;;;9.81;89.70;100554.94;5094047;28;19912;-59
2022/02/27 10:44:51;;;;;;;;;;;;;;;9.43;86.31;100550.75;5075704;28;19977;-59
2022/02/27 10:47:17;;;;;;;;;;;;;;;9.92;87.28;100560.00;5095171;28;19916;-58
2022/02/27 10:49:43;;;;;;;;;;;;;;;9.48;88.39;100558.44;5092236;28;19992;-60
2022/02/27 10:52:15;;;;;;;;;;;;;;;9.86;89.05;100549.75;5095790;28;19920;-60
2022/02/27 10:54:41;;;;;;;;;;;;;;;9.13;86.77;100547.38;5092853;28;20010;-60
2022/02/27 10:57:09;;;;;;;;;;;;;;;10.07;86.52;100552.22;5093605;28;20292;-60
2022/02/27 10:59:34;;;;;;;;;;;;;;;9.67;88.85;100559.25;5093302;28;19916;-60
2022/02/27 11:01:59;;;;;;;;;;;;;;;10.26;84.97;100558.13;5071446;28;20417;-60
2022/02/27 11:04:25;;;;;;;;;;;;;;;10.18;87.65;100558.16;5095188;28;20411;-59
2022/02/27 11:06:50;;;;;;;;;;;;;;;9.95;86.27;100558.28;5090742;28;19916;-58
2022/02/27 11:09:15;;;;;;;;;;;;;;;10.11;85.11;100548.78;5092527;28;20281;-60
2022/02/27 11:11:41;;;;;;;;;;;;;;;10.10;87.81;100547.03;5091018;28;20467;-60
2022/02/27 11:14:07;;;;;;;;;;;;;;;10.82;86.25;100549.19;5091419;28;20280;-60
2022/02/27 11:16:32;;;;;;;;;;;;;;;10.98;83.15;100546.47;5091667;28;20425;-60
2022/02/27 11:18:58;;;;;;;;;;;;;;;10.70;84.61;100536.41;5094104;28;19920;-60
2022/02/27 11:21:23;;;;;;;;;;;;;;;11.27;84.44;100543.63;5094408;28;19912;-60
2022/02/27 11:23:50;;;;;;;;;;;;;;;11.18;82.83;100541.16;5093156;28;20018;-59
2022/02/27 11:26:16;;;;;;;;;;;;;;;10.46;83.17;100538.28;5092272;28;19960;-60
2022/02/27 11:28:41;;;;;;;;;;;;;;;11.53;84.86;100527.88;5089272;28;19920;-60
2022/02/27 11:31:07;;;;;;;;;;;;;;;10.54;84.21;100527.09;5093540;28;20090;-60
2022/02/27 11:33:32;;;;;;;;;;;;;;;10.58;84.83;100533.91;5092294;28;19912;-60
2022/02/27 11:35:58;;;;;;;;;;;;;;;10.73;81.74;100522.66;5092940;28;20000;-60
2022/02/27 11:38:32;;;;;;;;;;;;;;;10.44;82.67;100521.97;5072133;28;19916;-59
2022/02/27 11:41:06;;;;;;;;;;;;;;;11.06;82.85;100521.47;5088519;28;19919;-57
2022/02/27 11:49:45;;;;;;;;;;;;;;;11.18;77.64;100510.22;5093192;28;19975;-60
2022/02/27 11:52:10;;;;;;;;;;;;;;;10.66;81.69;100509.81;5082238;28;19920;-59
2022/02/27 11:54:40;;;;;;;;;;;;;;;10.65;79.55;100514.97;5081751;28;19919;-57
2022/02/27 11:57:10;;;;;;;;;;;;;;;10.58;77.25;100513.31;5081728;28;19924;-60
2022/02/27 11:59:50;;;;;;;;;;;;;;;11.34;79.15;100503.16;5090255;28;19924;-58
2022/02/27 12:02:22;;;;;;;;;;;;;;;11.02;77.42;100514.66;5087206;28;19985;-59
2022/02/27 12:04:49;;;;;;;;;;;;;;;11.23;78.40;100503.28;5087009;28;19941;-58
2022/02/27 12:07:48;;;;;;;;;;;;;;;12.20;78.61;100509.81;5068247;28;19977;-59
2022/02/27 12:29:14;;;;;;;;;;;;;;;11.11;78.02;100493.94;5086755;27;19959;-59
2022/02/27 12:41:08;;;;;;;;;;;;;;;12.10;73.98;100483.28;5086854;28;20019;-61
2022/02/27 12:43:34;;;;;;;;;;;;;;;11.35;74.94;100484.22;5088130;28;19938;-60
2022/02/27 12:45:59;;;;;;;;;;;;;;;11.81;73.91;100481.06;5053849;28;20424;-60
2022/02/27 12:50:11;;;;;;;;;;;;;;;11.51;80.09;100483.16;5068545;28;19916;-61
2022/02/27 12:51:13;;;;;;;;;;;;;;;11.61;74.33;100487.34;5087352;28;20434;-58
2022/02/27 12:53:38;;;;;;;;;;;;;;;10.79;74.81;100483.94;5088773;28;19920;-60
2022/02/27 12:56:04;;;;;;;;;;;;;;;11.54;75.40;100480.56;5088797;28;19916;-60
2022/02/27 12:58:38;;;;;;;;;;;;;;;11.95;75.71;100484.38;5087178;28;19917;-60
2022/02/27 13:01:05;;;;;;;;;;;;;;;12.42;69.86;100479.38;5087572;28;19916;-61
2022/02/27 13:03:30;;;;;;;;;;;;;;;11.49;71.60;100483.22;5087047;28;20269;-61
2022/02/27 13:05:59;;;;;;;;;;;;;;;11.72;75.16;100482.91;5086346;28;19916;-60
2022/02/27 13:08:24;;;;;;;;;;;;;;;11.77;74.46;100490.59;5087352;28;19924;-59
2022/02/27 13:10:50;;;;;;;;;;;;;;;10.94;72.85;100488.09;5087638;28;19916;-61
2022/02/27 13:28:52;;;;;;;;;;;;;;;11.37;72.83;100475.59;5087024;28;19916;-60
2022/02/27 13:37:51;;;;;;;;;;;;;;;12.45;76.57;100475.03;5047042;28;19939;-61
2022/02/27 13:49:31;;;;;;;;;;;;;;;10.86;77.48;100476.13;5063443;28;19920;-60
2022/02/27 13:51:56;;;;;;;;;;;;;;;11.14;79.36;100468.13;5063736;28;19935;-60
2022/02/27 13:54:22;;;;;;;;;;;;;;;11.32;74.98;100471.38;5067574;28;19922;-60
2022/02/27 13:57:03;;;;;;;;;;;;;;;11.51;76.80;100467.69;5068195;28;19912;-60
2022/02/27 13:59:38;;;;;;;;;;;;;;;10.89;82.15;100476.09;5051401;28;20365;-60
2022/02/27 14:02:04;;;;;;;;;;;;;;;11.07;79.28;100466.47;5067280;28;20007;-59
2022/02/27 14:04:29;;;;;;;;;;;;;;;10.98;82.83;100467.41;5066723;28;20477;-59
2022/02/27 14:06:54;;;;;;;;;;;;;;;11.43;78.20;100461.78;5067625;28;20475;-58
2022/02/27 14:09:20;;;;;;;;;;;;;;;11.04;76.57;100469.94;5068064;28;19917;-59
2022/02/27 14:11:45;;;;;;;;;;;;;;;10.64;76.59;100456.59;5067722;28;20297;-60
2022/02/27 14:14:10;;;;;;;;;;;;;;;11.27;74.03;100448.22;5067693;28;20138;-59
2022/02/27 14:16:37;;;;;;;;;;;;;;;11.40;77.99;100443.75;5109160;28;19912;-59
2022/02/27 14:19:07;;;;;;;;;;;;;;;10.88;81.64;100451.19;5104897;28;20010;-59
2022/02/27 14:21:33;;;;;;;;;;;;;;;11.01;83.52;100451.91;5105972;28;19966;-59
2022/02/27 14:39:34;;;;;;;;;;;;;;;10.29;84.08;100431.13;5100125;28;19931;-61
2022/02/27 14:47:43;;;;;;;;;;;;;;;10.32;78.10;100434.53;5120906;22;19962;-76
2022/02/27 14:50:08;;;;;;;;;;;;;;;10.75;85.67;100439.31;5096675;28;19959;-76
2022/02/27 14:52:34;;;;;;;;;;;;;;;10.12;84.29;100432.06;5097338;28;19920;-76
2022/02/27 14:55:04;;;;;;;;;;;;;;;10.02;80.07;100431.28;5080967;28;19919;-76
2022/02/27 14:57:30;;;;;;;;;;;;;;;10.11;84.95;100434.66;5071731;28;20360;-76
2022/02/27 14:59:56;;;;;;;;;;;;;;;10.03;83.21;100426.97;5096464;28;19927;-76
2022/02/27 15:02:21;;;;;;;;;;;;;;;10.34;83.94;100431.94;5066820;28;19923;-76
2022/02/27 15:04:46;;;;;;;;;;;;;;;10.34;86.11;100435.38;5080548;28;19920;-76
2022/02/27 15:07:12;;;;;;;;;;;;;;;10.86;83.83;100426.31;5098606;28;19960;-76
2022/02/27 15:09:37;;;;;;;;;;;;;;;10.72;83.31;100420.44;5080777;28;19958;-77
2022/02/27 15:12:03;;;;;;;;;;;;;;;10.86;82.40;100426.31;5079245;28;19912;-77
2022/02/27 15:14:28;;;;;;;;;;;;;;;10.30;88.52;100431.09;5062028;28;19916;-77
2022/02/27 15:16:54;;;;;;;;;;;;;;;10.68;88.37;100427.34;5080649;28;19941;-77
2022/02/27 15:19:19;;;;;;;;;;;;;;;10.57;87.40;100424.03;5077945;28;19915;-77
2022/02/27 15:21:44;;;;;;;;;;;;;;;10.46;91.13;100422.38;5077811;28;19919;-77
2022/02/27 15:24:10;;;;;;;;;;;;;;;10.11;90.92;100421.78;5072997;28;20300;-77
2022/02/27 15:26:36;;;;;;;;;;;;;;;10.02;89.84;100417.56;5095803;28;19930;-77
2022/02/27 15:29:02;;;;;;;;;;;;;;;9.71;92.79;100415.16;5078268;28;19920;-77
2022/02/27 15:31:27;;;;;;;;;;;;;;;10.12;91.45;100400.31;5078530;28;19943;-77
2022/02/27 15:33:52;;;;;;;;;;;;;;;9.89;90.31;100409.06;5080792;28;19912;-77
2022/02/27 15:36:17;;;;;;;;;;;;;;;9.60;91.38;100407.53;5079482;28;19924;-77
2022/02/27 15:38:43;;;;;;;;;;;;;;;9.72;90.41;100406.59;5077030;28;19920;-77
2022/02/27 15:41:08;;;;;;;;;;;;;;;9.28;92.07;100404.25;5076836;28;20032;-77
2022/02/27 15:43:34;;;;;;;;;;;;;;;9.66;93.05;100403.22;5066917;28;19923;-77
2022/02/27 15:45:59;;;;;;;;;;;;;;;9.67;92.81;100413.50;5099693;28;19923;-77
2022/02/27 15:48:24;;;;;;;;;;;;;;;9.81;93.52;100413.41;5079374;28;20016;-77
2022/02/27 15:50:49;;;;;;;;;;;;;;;9.76;93.44;100410.00;5077703;28;19920;-77
2022/02/27 15:53:15;;;;;;;;;;;;;;;9.64;95.08;100409.19;5080725;28;19920;-77
2022/02/27 15:55:40;;;;;;;;;;;;;;;9.77;92.61;100409.16;5066524;28;19912;-77
2022/02/27 15:58:06;;;;;;;;;;;;;;;9.91;96.24;100404.75;5099034;28;19916;-77
2022/02/27 16:00:31;;;;;;;;;;;;;;;9.87;96.79;100404.78;5098956;28;19920;-77
2022/02/27 16:02:58;;;;;;;;;;;;;;;9.62;96.93;100400.66;5063403;28;19983;-77
2022/02/27 16:05:23;;;;;;;;;;;;;;;9.60;96.40;100386.97;5079170;28;19920;-77
2022/02/27 16:07:49;;;;;;;;;;;;;;;9.40;95.75;100396.50;5077284;28;19972;-77
2022/02/27 16:10:15;;;;;;;;;;;;;;;9.40;93.58;100387.06;5096036;28;19919;-77
2022/02/27 16:12:41;;;;;;;;;;;;;;;9.18;93.12;100383.72;5065762;28;19912;-77
2022/02/27 16:15:06;;;;;;;;;;;;;;;9.71;95.18;100388.59;5073349;28;19916;-77
2022/02/27 16:17:32;;;;;;;;;;;;;;;10.02;95.84;100384.94;5077683;28;19927;-77
2022/02/27 16:19:57;;;;;;;;;;;;;;;10.16;92.47;100386.56;5098583;28;20266;-78
2022/02/27 16:22:22;;;;;;;;;;;;;;;9.39;93.04;100382.75;5079465;28;20295;-77
2022/02/27 16:24:49;;;;;;;;;;;;;;;9.84;96.58;100385.09;5045944;28;20095;-78
2022/02/27 16:27:14;;;;;;;;;;;;;;;9.57;97.78;100376.66;5090400;28;19919;-77
2022/02/27 16:29:39;;;;;;;;;;;;;;;9.42;97.75;100384.50;5074998;28;19920;-77
2022/02/27 16:32:05;;;;;;;;;;;;;;;8.87;96.18;100382.09;5070547;28;19916;-77
2022/02/27 16:34:30;;;;;;;;;;;;;;;8.86;92.87;100378.69;5096018;28;19920;-77
2022/02/27 16:36:56;;;;;;;;;;;;;;;9.00;96.17;100383.78;5078411;28;20379;-77
2022/02/27 16:39:21;;;;;;;;;;;;;;;9.06;95.04;100388.91;5097488;28;19935;-77
2022/02/27 16:41:48;;;;;;;;;;;;;;;9.16;93.93;100380.28;5096761;28;19999;-77
2022/02/27 16:44:13;;;;;;;;;;;;;;;9.30;93.82;100384.53;5078806;28;19916;-77
2022/02/27 16:46:39;;;;;;;;;;;;;;;9.27;93.12;100387.13;5094191;28;19928;-77
2022/02/27 16:49:04;;;;;;;;;;;;;;;9.06;93.65;100383.78;5096895;28;19919;-77
2022/02/27 16:51:29;;;;;;;;;;;;;;;9.16;93.64;100388.00;5062098;28;19923;-78
2022/02/27 16:53:55;;;;;;;;;;;;;;;9.88;93.73;100386.78;5096496;28;19915;-77
2022/02/27 16:56:21;;;;;;;;;;;;;;;10.23;90.65;100383.06;5055669;28;19931;-77
2022/02/27 16:58:46;;;;;;;;;;;;;;;9.35;95.17;100390.50;5080866;28;20455;-77
2022/02/27 17:01:12;;;;;;;;;;;;;;;9.74;89.83;100386.00;5077780;28;19969;-77
2022/02/27 17:03:37;;;;;;;;;;;;;;;9.25;91.81;100393.97;5082695;28;20170;-77
2022/02/27 17:06:03;;;;;;;;;;;;;;;9.39;91.78;100387.91;5077496;28;20033;-77
2022/02/27 17:08:29;;;;;;;;;;;;;;;9.22;96.70;100400.00;5075388;28;19912;-78
2022/02/27 17:10:54;;;;;;;;;;;;;;;8.92;94.66;100400.97;5097352;28;19926;-77
2022/02/27 17:13:20;;;;;;;;;;;;;;;9.48;94.65;100397.28;5079334;28;19916;-77
2022/02/27 17:15:46;;;;;;;;;;;;;;;9.41;93.23;100400.75;5078892;28;19920;-77
2022/02/27 17:18:11;;;;;;;;;;;;;;;9.39;96.20;100405.06;5077842;28;19926;-77
2022/02/27 17:20:37;;;;;;;;;;;;;;;9.27;94.84;100407.69;5075655;28;19916;-77
2022/02/27 17:23:03;;;;;;;;;;;;;;;9.54;91.90;100399.84;5078898;28;19966;-77
2022/02/27 17:25:28;;;;;;;;;;;;;;;10.21;91.49;100402.81;5067648;28;19959;-77
2022/02/27 17:27:54;;;;;;;;;;;;;;;10.50;89.96;100401.75;5081519;28;19929;-77
2022/02/27 17:30:20;;;;;;;;;;;;;;;10.71;87.24;100396.41;5099150;28;19916;-77
2022/02/27 17:32:45;;;;;;;;;;;;;;;10.34;89.17;100401.88;5085794;28;20147;-77
2022/02/27 17:35:10;;;;;;;;;;;;;;;10.24;92.49;100407.94;5082878;28;20372;-77
2022/02/27 17:37:36;;;;;;;;;;;;;;;10.27;92.55;100413.09;5084188;28;20385;-77
2022/02/27 17:40:05;;;;;;;;;;;;;;;10.29;91.76;100411.38;5084477;28;19927;-78
2022/02/27 17:42:32;;;;;;;;;;;;;;;10.17;89.01;100414.00;5081027;28;19935;-77
2022/02/27 17:44:58;;;;;;;;;;;;;;;10.46;89.13;100406.06;5086285;28;19968;-77
2022/02/27 17:47:24;;;;;;;;;;;;;;;10.39;88.42;100412.16;5084967;28;19924;-77
2022/02/27 17:49:50;;;;;;;;;;;;;;;10.53;90.48;100407.72;5079556;28;19930;-77
2022/02/27 17:52:16;;;;;;;;;;;;;;;9.64;93.20;100414.34;5078237;28;19915;-77
2022/02/27 17:54:41;;;;;;;;;;;;;;;9.85;90.58;100402.22;5100843;28;19920;-75
2022/02/27 17:57:06;;;;;;;;;;;;;;;9.76;94.07;100404.84;5060260;28;20038;-78
2022/02/27 17:59:33;;;;;;;;;;;;;;;9.88;93.34;100406.50;5082787;28;19931;-78
2022/02/27 18:01:59;;;;;;;;;;;;;;;9.94;94.44;100406.44;5079894;28;20350;-77
2022/02/27 18:04:24;;;;;;;;;;;;;;;9.77;97.13;100404.84;5080272;28;19920;-77
2022/02/27 18:06:50;;;;;;;;;;;;;;;9.48;97.92;100417.00;5082402;28;19924;-77
2022/02/27 18:09:16;;;;;;;;;;;;;;;8.53;100.00;100419.00;5081400;28;20355;-78
2022/02/27 18:11:43;;;;;;;;;;;;;;;8.23;100.00;100424.94;5081890;28;19955;-77
2022/02/27 18:14:08;;;;;;;;;;;;;;;8.46;100.00;100417.31;5075302;28;19935;-78
2022/02/27 18:16:34;;;;;;;;;;;;;;;8.68;100.00;100410.41;5075244;28;20588;-77
2022/02/27 18:18:59;;;;;;;;;;;;;;;8.73;100.00;100411.25;5082234;28;19967;-77
2022/02/27 18:21:25;;;;;;;;;;;;;;;9.17;100.00;100402.59;5081045;28;19989;-78
2022/02/27 18:23:50;;;;;;;;;;;;;;;9.36;99.83;100402.50;5082918;28;19926;-77
2022/02/27 18:26:15;;;;;;;;;;;;;;;8.98;98.65;100400.91;5066050;28;19920;-78
2022/02/27 18:28:41;;;;;;;;;;;;;;;9.27;100.00;100402.53;5099508;28;20144;-78
2022/02/27 18:31:06;;;;;;;;;;;;;;;9.17;99.51;100407.72;5081832;28;20578;-77
2022/02/27 18:33:32;;;;;;;;;;;;;;;9.23;98.81;100405.97;5081928;28;19959;-78
2022/02/27 18:35:58;;;;;;;;;;;;;;;9.16;95.87;100400.84;5096448;28;19927;-78
2022/02/27 18:38:23;;;;;;;;;;;;;;;8.82;98.57;100409.53;5066042;28;19974;-78
2022/02/27 18:40:48;;;;;;;;;;;;;;;9.44;98.43;100405.88;5079165;28;20365;-79
2022/02/27 18:43:14;;;;;;;;;;;;;;;9.10;96.90;100400.91;5075942;28;19942;-78
2022/02/27 18:45:39;;;;;;;;;;;;;;;8.75;99.91;100404.41;5079128;28;20280;-78
2022/02/27 18:48:04;;;;;;;;;;;;;;;8.12;100.00;100406.16;5079709;28;20018;-78
2022/02/27 18:50:31;;;;;;;;;;;;;;;7.80;100.00;100406.97;5098556;28;19916;-77
2022/02/27 18:52:56;;;;;;;;;;;;;;;8.48;100.00;100409.56;5078066;28;19920;-77
2022/02/27 18:55:21;;;;;;;;;;;;;;;7.89;100.00;100411.22;5069087;28;20287;-78
2022/02/27 18:57:47;;;;;;;;;;;;;;;7.77;100.00;100409.50;5080072;28;19926;-76
2022/02/27 19:00:14;;;;;;;;;;;;;;;7.59;100.00;100407.75;5097270;28;19977;-76
2022/02/27 19:02:39;;;;;;;;;;;;;;;7.29;100.00;100396.53;5095849;28;19981;-77
2022/02/27 19:05:07;;;;;;;;;;;;;;;7.40;100.00;100394.03;5074197;28;20122;-77
2022/02/27 19:07:32;;;;;;;;;;;;;;;7.76;100.00;100397.53;5079027;28;19920;-77
2022/02/27 19:09:58;;;;;;;;;;;;;;;7.61;100.00;100394.94;5065601;28;19930;-78
2022/02/27 19:12:23;;;;;;;;;;;;;;;7.41;100.00;100400.88;5077832;28;20572;-78
2022/02/27 19:14:49;;;;;;;;;;;;;;;6.97;100.00;100398.97;5077403;28;19924;-77
2022/02/27 19:17:14;;;;;;;;;;;;;;;6.92;100.00;100387.84;5079483;28;20288;-78
2022/02/27 19:19:40;;;;;;;;;;;;;;;7.20;100.00;100396.50;5099599;28;19934;-78
2022/02/27 19:22:05;;;;;;;;;;;;;;;7.17;100.00;100391.38;5074693;28;20034;-77
2022/02/27 19:24:32;;;;;;;;;;;;;;;7.44;100.00;100394.91;5098641;28;19920;-77
2022/02/27 19:26:57;;;;;;;;;;;;;;;7.52;100.00;100394.03;5069740;28;19916;-78
2022/02/27 19:29:27;;;;;;;;;;;;;;;7.13;100.00;100394.78;5098506;28;19941;-77
2022/02/27 19:31:53;;;;;;;;;;;;;;;7.38;100.00;100398.28;5063265;28;19919;-76
2022/02/27 19:34:18;;;;;;;;;;;;;;;7.50;100.00;100390.66;5078501;28;20430;-75
2022/02/27 19:36:44;;;;;;;;;;;;;;;7.70;100.00;100397.53;5078926;28;19912;-75
2022/02/27 19:39:09;;;;;;;;;;;;;;;7.70;100.00;100403.50;5078369;28;19928;-75
2022/02/27 19:41:35;;;;;;;;;;;;;;;7.79;100.00;100401.81;5080002;28;19919;-75
2022/02/27 19:44:02;;;;;;;;;;;;;;;7.84;100.00;100395.81;5079749;28;20355;-76
2022/02/27 19:46:28;;;;;;;;;;;;;;;7.88;100.00;100406.97;5081439;28;19977;-75
2022/02/27 19:48:53;;;;;;;;;;;;;;;7.66;100.00;100411.19;5082180;28;20282;-75
2022/02/27 19:51:18;;;;;;;;;;;;;;;7.95;100.00;100413.81;5069352;28;20350;-76
2022/02/27 19:53:46;;;;;;;;;;;;;;;7.71;100.00;100409.50;5107626;28;19912;-76
2022/02/27 19:56:11;;;;;;;;;;;;;;;7.09;100.00;100414.41;5102160;28;19920;-77
2022/02/27 19:58:36;;;;;;;;;;;;;;;7.15;100.00;100410.16;5094347;28;19920;-76
2022/02/27 20:01:02;;;;;;;;;;;;;;;7.01;100.00;100413.50;5093904;28;19916;-76
2022/02/27 20:03:29;;;;;;;;;;;;;;;7.89;100.00;100414.66;5112536;28;19915;-76
2022/02/27 20:05:55;;;;;;;;;;;;;;;7.70;100.00;100412.91;5077495;28;19912;-76
2022/02/27 20:08:20;;;;;;;;;;;;;;;7.56;100.00;100412.03;5077010;28;19919;-76
2022/02/27 20:10:50;;;;;;;;;;;;;;;8.11;100.00;100406.97;5087383;28;19915;-76
2022/02/27 20:13:17;;;;;;;;;;;;;;;8.01;100.00;100407.84;5084691;28;20728;-76
2022/02/27 20:15:43;;;;;;;;;;;;;;;6.78;100.00;100412.53;5091995;28;19967;-76
2022/02/27 20:18:09;;;;;;;;;;;;;;;7.42;100.00;100411.97;5076822;28;19954;-76
2022/02/27 20:20:36;;;;;;;;;;;;;;;7.24;100.00;100407.63;5083877;28;20449;-75
2022/02/27 20:23:02;;;;;;;;;;;;;;;7.83;100.00;100399.25;5077974;28;19916;-76
2022/02/27 20:25:27;;;;;;;;;;;;;;;6.70;100.00;100403.09;5102738;28;19911;-76
2022/02/27 20:27:52;;;;;;;;;;;;;;;7.01;100.00;100400.69;5083896;28;19989;-76
2022/02/27 20:30:18;;;;;;;;;;;;;;;6.96;100.00;100402.38;5086999;28;19962;-76
2022/02/27 20:32:43;;;;;;;;;;;;;;;6.81;100.00;100403.13;5087158;28;19911;-76
2022/02/27 20:35:10;;;;;;;;;;;;;;;7.41;100.00;100406.00;5093538;28;19965;-76
2022/02/27 20:37:36;;;;;;;;;;;;;;;6.57;100.00;100401.31;5111394;28;19954;-75
2022/02/27 20:40:02;;;;;;;;;;;;;;;7.30;100.00;100405.97;5070186;28;20389;-76
2022/02/27 20:42:27;;;;;;;;;;;;;;;7.47;100.00;100405.16;5094408;28;19912;-76
2022/02/27 20:44:53;;;;;;;;;;;;;;;6.33;100.00;100406.22;5093771;28;20026;-76
2022/02/27 20:47:18;;;;;;;;;;;;;;;6.83;100.00;100408.28;5093817;28;20475;-76
2022/02/27 20:49:43;;;;;;;;;;;;;;;6.88;100.00;100398.91;5093476;28;19999;-77
2022/02/27 20:52:09;;;;;;;;;;;;;;;6.90;100.00;100400.63;5073601;28;20396;-77
2022/02/27 20:54:34;;;;;;;;;;;;;;;7.20;100.00;100405.91;5073157;28;19923;-76
2022/02/27 20:56:59;;;;;;;;;;;;;;;7.34;100.00;100406.81;5083656;28;19916;-75
2022/02/27 20:59:25;;;;;;;;;;;;;;;7.18;100.00;100412.72;5093723;28;20338;-76
2022/02/27 21:01:51;;;;;;;;;;;;;;;7.01;100.00;100400.69;5094611;28;20422;-76
2022/02/27 21:04:16;;;;;;;;;;;;;;;6.81;100.00;100407.41;5097710;28;20006;-76
2022/02/27 21:06:42;;;;;;;;;;;;;;;7.01;100.00;100410.94;5097926;28;20445;-76
2022/02/27 21:09:07;;;;;;;;;;;;;;;6.76;100.00;100419.34;5098279;28;19912;-76
2022/02/27 21:11:33;;;;;;;;;;;;;;;7.20;100.00;100405.91;5115156;28;19912;-76
2022/02/27 21:13:59;;;;;;;;;;;;;;;6.81;100.00;100410.81;5088162;28;20550;-76
2022/02/27 21:16:24;;;;;;;;;;;;;;;6.80;100.00;100404.00;5097107;28;19938;-76
2022/02/27 21:18:49;;;;;;;;;;;;;;;6.98;100.00;100400.69;5115438;28;20016;-76
2022/02/27 21:21:16;;;;;;;;;;;;;;;7.34;100.00;100399.13;5097206;28;19911;-76
2022/02/27 21:23:41;;;;;;;;;;;;;;;7.03;100.00;100399.00;5097327;28;19916;-76
2022/02/27 21:26:07;;;;;;;;;;;;;;;6.24;100.00;100405.31;5080031;28;19918;-76
2022/02/27 21:28:32;;;;;;;;;;;;;;;6.45;100.00;100398.63;5097342;28;20284;-76
2022/02/27 21:30:58;;;;;;;;;;;;;;;6.65;100.00;100397.06;5114769;28;19912;-76
2022/02/27 21:33:23;;;;;;;;;;;;;;;6.45;100.00;100399.53;5077304;28;20271;-76
2022/02/27 21:35:48;;;;;;;;;;;;;;;6.60;100.00;100387.66;5077479;28;19912;-76
2022/02/27 21:38:14;;;;;;;;;;;;;;;5.95;100.00;100391.41;5083825;28;20346;-76
2022/02/27 21:40:39;;;;;;;;;;;;;;;6.15;100.00;100395.00;5091093;28;19937;-76
2022/02/27 21:43:04;;;;;;;;;;;;;;;5.99;100.00;100385.47;5088786;28;19912;-76
2022/02/27 21:45:30;;;;;;;;;;;;;;;6.23;100.00;100388.25;5075945;28;20370;-76
2022/02/27 21:47:55;;;;;;;;;;;;;;;5.81;100.00;100383.56;5091420;28;19923;-75
2022/02/27 21:50:21;;;;;;;;;;;;;;;6.02;100.00;100380.38;5091407;28;20313;-76
2022/02/27 21:52:46;;;;;;;;;;;;;;;6.22;100.00;100371.19;5085011;28;19922;-76
2022/02/27 21:55:12;;;;;;;;;;;;;;;6.21;100.00;100372.03;5084772;28;19920;-75
2022/02/27 21:57:37;;;;;;;;;;;;;;;6.00;100.00;100371.88;5083637;28;20497;-76
2022/02/27 22:00:04;;;;;;;;;;;;;;;6.02;100.00;100377.81;5079133;28;19912;-76
2022/02/27 22:02:29;;;;;;;;;;;;;;;6.14;100.00;100377.94;5094727;28;19912;-77
2022/02/27 22:04:54;;;;;;;;;;;;;;;6.05;100.00;100377.88;5097669;28;19920;-76
2022/02/27 22:07:20;;;;;;;;;;;;;;;5.82;100.00;100365.72;5076457;28;20341;-76
2022/02/27 22:09:45;;;;;;;;;;;;;;;6.06;100.00;100366.78;5095184;28;20029;-76
2022/02/27 22:12:10;;;;;;;;;;;;;;;5.90;100.00;100367.47;5113831;28;19994;-76
2022/02/27 22:14:36;;;;;;;;;;;;;;;5.87;100.00;100358.06;5094113;28;19912;-75
2022/02/27 22:17:01;;;;;;;;;;;;;;;5.51;100.00;100359.44;5086653;28;19915;-76
2022/02/27 22:19:27;;;;;;;;;;;;;;;5.58;100.00;100356.09;5094102;28;19915;-76
2022/02/27 22:21:52;;;;;;;;;;;;;;;5.80;100.00;100357.16;5110014;28;19922;-76
2022/02/27 22:24:18;;;;;;;;;;;;;;;6.01;100.00;100355.66;5094376;28;19920;-76
2022/02/27 22:26:43;;;;;;;;;;;;;;;6.13;100.00;100355.75;5088032;28;19920;-76
2022/02/27 22:29:12;;;;;;;;;;;;;;;5.66;100.00;100353.63;5085684;28;20018;-76
2022/02/27 22:31:38;;;;;;;;;;;;;;;6.09;100.00;100348.94;5095657;28;19976;-75
2022/02/27 22:34:03;;;;;;;;;;;;;;;5.77;100.00;100341.81;5084239;28;19916;-76